Webcam Meteoipassi more information Webcam Meteoipassi


Pisa torre orologio more information Pisa torre orologio


altri nostri siti meteo:

Pomeziameteo 1Sito sul meteo

Pomeziameteo DashboardSito sul meteo

Caput FrigorisSito sul meteo

BarcellonameteoSito sul meteo

MeteoipassiSito sul meteo

ViterbometeoSito sul meteo

MeteotortoretoSito sul meteo

TortoretometeolidoSito sul meteo

MeteoGonzagaSito sul meteo



Nessuna attenzione particolare richiesta.    Non ci sono allerte meteo

Report METAR

   
LIRQ - Firenze
Dati ricevuti: Sep 26 2020 1:20 pm
Sereno  
Sereno  
   Vento: Variabile 5.6 km/h
Vento: Variabile 5.6 km/h
Temperatura: 21°C
P.to Rugiada: 5°C
Umidita: 35%
Barometro: 998 hPa
Visibilita: oltre 10 km
dettagli cloud: Sereno
LIRQ 261120Z VRB03KT CAVOK 21/05 Q0998
LIRP - Lucca
Dati ricevuti: Sep 26 2020 1:15 pm
Sereno  
Sereno  
   Vento: West 22.2 km/h
Vento: West 22.2 km/h
Temperatura: 21°C
P.to Rugiada: 2°C
Umidita: 29%
Barometro: 998 hPa
Visibilita: oltre 10 km
dettagli cloud: Sereno
LIRP 261115Z 28012KT CAVOK 21/02 Q0998 NOSIG
LIRP - Livorno
Dati ricevuti: Sep 26 2020 1:15 pm
Sereno  
Sereno  
   Vento: West 22.2 km/h
Vento: West 22.2 km/h
Temperatura: 21°C
P.to Rugiada: 2°C
Umidita: 29%
Barometro: 998 hPa
Visibilita: oltre 10 km
dettagli cloud: Sereno
LIRP 261115Z 28012KT CAVOK 21/02 Q0998 NOSIG
LIMP - Parma
Dati ricevuti: Sep 26 2020 12:50 pm
Sereno  
Sereno  
   Vento: W 37 km/h
Vento: W 37 km/h
Temperatura: 20°C
P.to Rugiada: 1°C
Umidita: 28%
Barometro: 998 hPa
Visibilita: oltre 10 km
dettagli cloud: Sereno
LIMP 261050Z 30020KT CAVOK 20/01 Q0998
LIRF - Roma
Dati ricevuti: Sep 26 2020 1:20 pm
Poche nuvole  
Poche nuvole  
   Vento: West 5.6 km/h
Vento: West 5.6 km/h
Temperatura: 18°C
P.to Rugiada: 8°C
Umidita: 52%
Barometro: 1000 hPa
Nuvole: Poche nuvole
Visibilita: oltre 10 km
dettagli cloud: Poche nuvole 457.2 m
LIRF 261120Z 26003KT 220V300 9999 FEW015 18/08 Q1000 NOSIG
 

Script sviluppato da  Saratoga-weather.org Adattato per il modello da  Weerstation Leuven

Potete trovare le nostre info meteo anche a:

European Weather Network

Weather Underground

AWEKAS

HAMweather, WeatherForYou, PWS Weather

Strumentazione usata:

Stazione meteo
Oregon Scientific WMR88

Programma gestore dati meteo
WVIEW

Server per i dati meteo
WDS-5

Provider
Anemos WDS-5

Oregon Scientific WMR88

WVIEW

WDS-5

Anemos WDS-5